Weather History for Watonga, OK

Change the Weather History Date:

Friday, January 13, 2012

  Actual Average Record
Temperature  
Mean Temperature 34 °F -  
Max Temperature 50 °F 46 °F 71 °F (1983)
Min Temperature 19 °F 21 °F -3 °F (1963)
Degree Days  
Heating Degree Days 30    
Moisture  
Dew Point 21 °F    
Average Humidity 61    
Maximum Humidity 86    
Minimum Humidity 40    
Precipitation  
Precipitation 0.00 in - - ()
Sea Level Pressure  
Sea Level Pressure 30.15 in    
Wind  
Wind Speed 3 mph (WSW)    
Max Wind Speed 15 mph    
Max Gust Speed 17 mph    
Visibility 10 miles    
Events      
Averages and records for this station are not official NWS values.
T = Trace of Precipitation, MM = Missing Value Source: NWS Daily Summary

Daily Weather History Graph

Daily Weather History Graph

Search for Another Location

Airport:

Trip Planner

Search our weather history database for the weather conditions in past years. The results will help you decide how hot, cold, wet, or windy it might be!

Date:

Astronomy

Jan. 13, 2012 Rise Set
Actual Time 7:43 AM CST 5:40 PM CST
Civil Twilight 7:15 AM CST 6:08 PM CST
Nautical Twilight 6:44 AM CST 6:40 PM CST
Astronomical Twilight 6:13 AM CST 7:11 PM CST
Moon 10:43 PM CST (1/13) 10:09 AM CST (1/13)
Length of Visible Light 10h 53m
Length of Day
9h 57m
Waning Gibbous, 78% of the Moon is Illuminated
Jan 13
Waning Gibbous
Jan 16
Last Quarter
Jan 23
New
Jan 30
First Quarter
Feb 7
Full

Hourly Weather History & Observations

Time (CST) Temp. Windchill Dew Point Humidity Pressure Visibility Wind Dir Wind Speed Gust Speed Precip Events Conditions
12:15 AM 21.2 °F - 14.0 °F 74% 30.15 in 10.0 mi Calm Calm - N/A   Clear
12:35 AM 19.4 °F - 12.2 °F 74% 30.15 in 10.0 mi Calm Calm - N/A   Clear
12:55 AM 19.4 °F 14.3 °F 14.0 °F 80% 30.16 in 10.0 mi NNW 3.5 mph - N/A   Clear
1:15 AM 21.2 °F - 12.2 °F 68% 30.15 in 10.0 mi Calm Calm - N/A   Clear
1:35 AM 21.2 °F - 12.2 °F 68% 30.15 in 10.0 mi Calm Calm - N/A   Clear
1:55 AM 21.2 °F - 14.0 °F 74% 30.16 in 10.0 mi Calm Calm - N/A   Clear
2:15 AM 21.2 °F - 14.0 °F 74% 30.17 in 10.0 mi Calm Calm - N/A   Clear
2:35 AM 19.4 °F 14.3 °F 15.8 °F 86% 30.18 in 10.0 mi West 3.5 mph - N/A   Clear
2:55 AM 21.2 °F - 14.0 °F 74% 30.17 in 10.0 mi Calm Calm - N/A   Clear
3:35 AM 21.2 °F - 14.0 °F 74% 30.17 in 10.0 mi Calm Calm - N/A   Clear
3:55 AM 21.2 °F - 14.0 °F 74% 30.17 in 10.0 mi Calm Calm - N/A   Clear
4:35 AM 21.2 °F - 14.0 °F 74% 30.15 in 10.0 mi Calm Calm - N/A   Clear
4:55 AM 19.4 °F - 14.0 °F 80% 30.15 in 10.0 mi Calm Calm - N/A   Clear
5:15 AM 21.2 °F - 14.0 °F 74% 30.15 in 10.0 mi Calm Calm - N/A   Clear
5:35 AM 19.4 °F 14.3 °F 14.0 °F 80% 30.15 in 10.0 mi WSW 3.5 mph - N/A   Clear
5:55 AM 21.2 °F - 14.0 °F 74% 30.14 in 10.0 mi Calm Calm - N/A   Clear
6:15 AM 21.2 °F 14.9 °F 14.0 °F 74% 30.14 in 10.0 mi SW 4.6 mph - N/A   Clear
6:35 AM 26.6 °F - 15.8 °F 64% 30.15 in 10.0 mi Calm Calm - N/A   Mostly Cloudy
6:55 AM 24.8 °F 19.1 °F 17.6 °F 74% 30.16 in 10.0 mi West 4.6 mph - N/A   Mostly Cloudy
7:15 AM 24.8 °F 20.5 °F 17.6 °F 74% 30.16 in 10.0 mi WNW 3.5 mph - N/A   Scattered Clouds
7:35 AM 26.6 °F 22.6 °F 17.6 °F 69% 30.16 in 10.0 mi West 3.5 mph - N/A   Scattered Clouds
7:55 AM 26.6 °F 21.2 °F 17.6 °F 69% 30.17 in 10.0 mi WSW 4.6 mph - N/A   Scattered Clouds
8:15 AM 26.6 °F - 19.4 °F 74% 30.17 in 10.0 mi Calm Calm - N/A   Scattered Clouds
8:35 AM 26.6 °F 22.6 °F 19.4 °F 74% 30.17 in 10.0 mi SW 3.5 mph - N/A   Scattered Clouds
8:55 AM 26.6 °F 22.6 °F 21.2 °F 80% 30.18 in 10.0 mi WSW 3.5 mph - N/A   Scattered Clouds
9:15 AM 26.6 °F - 21.2 °F 80% 30.19 in 10.0 mi Calm Calm - N/A   Scattered Clouds
9:35 AM 28.4 °F 24.6 °F 21.2 °F 74% 30.20 in 10.0 mi West 3.5 mph - N/A   Scattered Clouds
9:55 AM 30.2 °F 25.4 °F 23.0 °F 75% 30.20 in 10.0 mi WSW 4.6 mph - N/A   Scattered Clouds
10:15 AM 32.0 °F 28.7 °F 23.0 °F 69% 30.20 in 10.0 mi West 3.5 mph - N/A   Clear
10:35 AM 32.0 °F 28.7 °F 23.0 °F 69% 30.20 in 10.0 mi WNW 3.5 mph - N/A   Clear
10:55 AM 35.6 °F 32.8 °F 24.8 °F 65% 30.20 in 10.0 mi WNW 3.5 mph - N/A   Clear
11:15 AM 37.4 °F 33.8 °F 26.6 °F 65% 30.19 in 10.0 mi NW 4.6 mph - N/A   Clear
11:35 AM 39.2 °F 34.2 °F 26.6 °F 61% 30.19 in 10.0 mi NW 6.9 mph - N/A   Clear
11:55 AM 41.0 °F 37.1 °F 26.6 °F 57% 30.19 in 10.0 mi West 5.8 mph - N/A   Clear
12:15 PM 42.8 °F 39.3 °F 26.6 °F 53% 30.18 in 10.0 mi West 5.8 mph - N/A   Clear
12:35 PM 42.8 °F 38.6 °F 26.6 °F 53% 30.17 in 10.0 mi WSW 6.9 mph - N/A   Clear
12:55 PM 44.6 °F 39.2 °F 26.6 °F 49% 30.15 in 10.0 mi WSW 10.4 mph - N/A   Clear
1:15 PM 44.6 °F 39.2 °F 26.6 °F 49% 30.14 in 10.0 mi SW 10.4 mph - N/A   Clear
1:35 PM 46.4 °F 41.1 °F 26.6 °F 46% 30.13 in 10.0 mi WSW 11.5 mph - N/A   Clear
1:55 PM 46.4 °F 41.9 °F 26.6 °F 46% 30.13 in 10.0 mi West 9.2 mph - N/A   Clear
2:35 PM 48.2 °F - 26.6 °F 43% 30.11 in 10.0 mi SW 9.2 mph - N/A   Clear
2:55 PM 50.0 °F - 26.6 °F 40% 30.11 in 10.0 mi West 10.4 mph - N/A   Clear
3:15 PM 50.0 °F - 26.6 °F 40% 30.11 in 10.0 mi West 12.7 mph - N/A   Clear
3:35 PM 50.0 °F - 26.6 °F 40% 30.11 in 10.0 mi WSW 9.2 mph 16.1 mph N/A   Clear
3:55 PM 50.0 °F - 26.6 °F 40% 30.11 in 10.0 mi West 15.0 mph - N/A   Clear
4:15 PM 50.0 °F - 26.6 °F 40% 30.11 in 10.0 mi West 11.5 mph - N/A   Clear
4:35 PM 50.0 °F - 26.6 °F 40% 30.11 in 10.0 mi WSW 13.8 mph - N/A   Clear
4:55 PM 50.0 °F - 26.6 °F 40% 30.11 in 10.0 mi West 11.5 mph 17.3 mph N/A   Clear
5:15 PM 50.0 °F - 28.4 °F 43% 30.11 in 10.0 mi WSW 11.5 mph - N/A   Clear
5:35 PM 48.2 °F - 26.6 °F 43% 30.11 in 10.0 mi WSW 9.2 mph - N/A   Clear
5:55 PM 46.4 °F 42.9 °F 24.8 °F 43% 30.11 in 10.0 mi SW 6.9 mph - N/A   Clear
6:15 PM 44.6 °F 40.7 °F 23.0 °F 43% 30.11 in 10.0 mi SW 6.9 mph - N/A   Clear
6:35 PM 41.0 °F 37.1 °F 21.2 °F 45% 30.12 in 10.0 mi SW 5.8 mph - N/A   Clear
7:15 PM 41.0 °F 38.0 °F 21.2 °F 45% 30.11 in 10.0 mi SW 4.6 mph - N/A   Clear
7:35 PM 37.4 °F 32.8 °F 21.2 °F 52% 30.11 in 10.0 mi SW 5.8 mph - N/A   Clear
7:55 PM 37.4 °F 32.1 °F 21.2 °F 52% 30.11 in 10.0 mi SW 6.9 mph - N/A   Clear
8:15 PM 37.4 °F 32.8 °F 21.2 °F 52% 30.11 in 10.0 mi SW 5.8 mph - N/A   Clear
8:35 PM 35.6 °F 30.7 °F 21.2 °F 56% 30.11 in 10.0 mi SW 5.8 mph - N/A   Clear
8:55 PM 37.4 °F 32.8 °F 21.2 °F 52% 30.11 in 10.0 mi SW 5.8 mph - N/A   Clear
9:15 PM 37.4 °F 32.1 °F 21.2 °F 52% 30.11 in 10.0 mi SW 6.9 mph - N/A   Clear
9:35 PM 33.8 °F 29.6 °F 23.0 °F 65% 30.11 in 10.0 mi SW 4.6 mph - N/A   Clear
9:55 PM 33.8 °F - 23.0 °F 65% 30.11 in 10.0 mi Calm Calm - N/A   Clear
10:15 PM 35.6 °F 29.2 °F 23.0 °F 60% 30.11 in 10.0 mi West 8.1 mph - N/A   Clear
10:35 PM 35.6 °F 30.7 °F 23.0 °F 60% 30.12 in 10.0 mi West 5.8 mph - N/A   Clear
10:55 PM 35.6 °F 30.7 °F 23.0 °F 60% 30.12 in 10.0 mi West 5.8 mph - N/A   Clear
11:15 PM 33.8 °F 29.6 °F 23.0 °F 65% 30.12 in 10.0 mi West 4.6 mph - N/A   Clear
11:35 PM 33.8 °F 27.7 °F 23.0 °F 65% 30.11 in 10.0 mi West 6.9 mph - N/A   Clear
11:55 PM 35.6 °F 29.9 °F 23.0 °F 60% 30.12 in 10.0 mi West 6.9 mph - N/A   Clear